Weather Forecast for Al Maktoum Airport 
Thursday, January 19, 2017 (02:09 UTC)
Al Maktoum International Airport
Last Updated: 19-Jan-2017 (02:08Z)
Wind Dir/Speed: ESE at 03 kt
Temperature: 13.8°C
Rel. Humidity: 86 %
Pressure: 1019.8 hPa
Visibility: 6000 m
  • METAR OMDW 190200Z 14003KT 7000 NSC 15/12 Q1019 NOSIG
DWC AIRPORT WEATHER FORECAST FOR 30 HOUR:
DWC TAF:
TAF OMDW 182259Z 1900/2006 12005KT CAVOK BECMG 1909/1911 34010KT BECMG 1915/1917 07008KT BECMG 2004/2006 18013KT=
VALID FROM:
2017-01-19 00:00Z
VALID TILL:
2017-01-20 06:00Z
SURFACE WIND:
ESE'LY 05KT

BECOMING NNW'LY 10KT FROM 0900Z-1100Z TODAY

BECOMING ENE'LY 08KT FROM 1500Z-1700Z TODAY

BECOMING S'LY 13KT FROM 0400Z-0600Z FRIDAY.
VISIBILITY:
08-12 KM.

WEATHER:
PARTLY CLOUDY.
CLOUD:
NIL SIGNIFICANT,
10% PROBABILITY OF TOWERING CUMULUS BASE 3,500 FT TOPS TO 23,000 FT BETWEEN 0900Z-1400Z TODAY.
TEMPERATURE:
MIN TEMPERATURE 14°C AROUND 0330Z TODAY

MAX TEMPERATURE 25°C AROUND 1030Z TODAY

MIN TEMPERATURE 15°C AROUND 0330Z FRIDAY.
HUMIDITY:
MAX HUMIDITY 85% AROUND 0330Z TODAY

MIN HUMIDITY 40% AROUND 1030Z TODAY

MAX HUMIDITY 85% AROUND 0330Z FRIDAY.
WIND SHEAR:
NIL SIGNIFICANT.
TEMPERATURE INVERSION:
NIL SIGNIFICANT.
COMMENTS:
NIL.